createdAt,value
2016-12-25T00:00:20.892Z,77.22
2016-12-25T00:01:30.918Z,77.42
2016-12-25T00:02:40.941Z,77.22
2016-12-25T00:03:51.266Z,77.26
2016-12-25T00:05:01.585Z,77.32
2016-12-25T00:06:11.596Z,77.22
2016-12-25T00:07:21.605Z,77.13
2016-12-25T00:08:31.616Z,77.22
2016-12-25T00:09:41.342Z,77.32
2016-12-25T00:10:51.677Z,77.13
2016-12-25T00:12:01.077Z,76.75
2016-12-25T00:13:11.083Z,77.03
2016-12-25T00:14:21.103Z,76.94
2016-12-25T00:15:31.437Z,77.13
2016-12-25T00:16:41.458Z,77.13
2016-12-25T00:17:51.465Z,77.03
2016-12-25T00:19:01.516Z,76.94
2016-12-25T00:20:11.852Z,77.07
2016-12-25T00:21:22.181Z,77.03
2016-12-25T00:22:32.210Z,76.98
2016-12-25T00:23:41.598Z,76.98
2016-12-25T00:24:51.933Z,77.26
2016-12-25T00:26:01.956Z,77.26
2016-12-25T00:27:12.267Z,77.45
2016-12-25T00:28:22.284Z,77.26
2016-12-25T00:29:32.611Z,77.36
2016-12-25T00:30:42.622Z,77.36
2016-12-25T00:31:52.354Z,77.45
2016-12-25T00:33:02.373Z,77.36
2016-12-25T00:34:12.702Z,77.74
2016-12-25T00:35:22.762Z,77.64
2016-12-25T00:36:32.790Z,77.74
2016-12-25T00:37:42.811Z,77.55
2016-12-25T00:38:52.853Z,77.64
2016-12-25T00:40:02.869Z,77.64
2016-12-25T00:41:13.203Z,77.55
2016-12-25T00:42:23.215Z,77.55
2016-12-25T00:43:33.553Z,77.55
2016-12-25T00:44:43.256Z,77.74
2016-12-25T00:45:53.564Z,77.55
2016-12-25T00:47:03.585Z,77.64
2016-12-25T00:48:13.947Z,77.64
2016-12-25T00:49:23.968Z,77.64
2016-12-25T00:50:34.297Z,77.64
2016-12-25T00:51:44.652Z,77.55
2016-12-25T00:52:54.989Z,77.55
2016-12-25T00:54:05.016Z,77.55
2016-12-25T00:55:15.029Z,77.64
2016-12-25T00:56:25.041Z,77.64
2016-12-25T00:57:35.367Z,77.17
2016-12-25T00:58:45.684Z,77.64
2016-12-25T00:59:55.700Z,77.07
2016-12-25T01:01:06.018Z,77.45
2016-12-25T01:02:16.037Z,77.07
2016-12-25T01:03:26.369Z,77.64
2016-12-25T01:04:36.702Z,77.45
2016-12-25T01:05:46.743Z,77.26
2016-12-25T01:06:57.070Z,77.45
2016-12-25T01:08:07.388Z,77.26
2016-12-25T01:09:16.789Z,77.26
2016-12-25T01:10:26.790Z,77.17
2016-12-25T01:11:37.131Z,76.98
2016-12-25T01:12:47.489Z,76.98
2016-12-25T01:13:57.511Z,77.07
2016-12-25T01:15:07.221Z,76.79
2016-12-25T01:16:16.909Z,76.98
2016-12-25T01:17:27.265Z,76.98
2016-12-25T01:18:37.017Z,76.98
2016-12-25T01:19:46.714Z,76.98
2016-12-25T01:20:56.731Z,76.98
2016-12-25T01:22:06.447Z,76.98
2016-12-25T01:23:16.464Z,76.98
2016-12-25T01:24:25.888Z,76.98
2016-12-25T01:25:35.613Z,77.07
2016-12-25T01:26:45.934Z,77.07
2016-12-25T01:27:56.254Z,77.07
2016-12-25T01:29:06.588Z,76.98
2016-12-25T01:30:16.292Z,76.88
2016-12-25T01:31:26.654Z,77.17
2016-12-25T01:32:36.992Z,77.26
2016-12-25T01:33:46.705Z,77.17
2016-12-25T01:34:57.024Z,77.17
2016-12-25T01:36:07.048Z,77.17
2016-12-25T01:37:17.385Z,77.17
2016-12-25T01:38:27.713Z,77.07
2016-12-25T01:39:37.419Z,76.98
2016-12-25T01:40:47.448Z,77.07
2016-12-25T01:41:57.787Z,76.98
2016-12-25T01:43:08.106Z,77.07
2016-12-25T01:44:18.115Z,77.26
2016-12-25T01:45:27.823Z,77.17
2016-12-25T01:46:37.524Z,77.07
2016-12-25T01:47:47.556Z,77.17
2016-12-25T01:48:57.254Z,77.17
2016-12-25T01:50:07.274Z,76.88
2016-12-25T01:51:17.602Z,77.26
2016-12-25T01:52:26.988Z,77.26
2016-12-25T01:53:37.006Z,77.17
2016-12-25T01:54:47.337Z,77.17
2016-12-25T01:55:57.365Z,77.17
2016-12-25T01:57:07.371Z,77.17
2016-12-25T01:58:17.392Z,77.17
2016-12-25T01:59:26.779Z,77.17
2016-12-25T02:00:37.120Z,77.26
2016-12-25T02:01:47.441Z,77.26
2016-12-25T02:02:56.848Z,77.26
2016-12-25T02:04:06.858Z,77.32
2016-12-25T02:05:17.184Z,77.36
2016-12-25T02:06:27.190Z,77.17
2016-12-25T02:07:36.897Z,77.36
2016-12-25T02:08:46.906Z,77.17
2016-12-25T02:09:56.914Z,77.45
2016-12-25T02:11:07.242Z,77.45
2016-12-25T02:12:17.262Z,77.07
2016-12-25T02:13:27.270Z,77.36
2016-12-25T02:14:36.976Z,77.36
2016-12-25T02:15:46.692Z,77.36
2016-12-25T02:16:57.006Z,77.36
2016-12-25T02:18:07.039Z,77.36
2016-12-25T02:19:17.367Z,77.17
2016-12-25T02:20:27.070Z,77.36
2016-12-25T02:21:37.086Z,77.17
2016-12-25T02:22:47.413Z,77.17
2016-12-25T02:23:57.430Z,77.17
2016-12-25T02:25:07.137Z,77.17
2016-12-25T02:26:17.464Z,76.98
2016-12-25T02:27:27.161Z,77.26
2016-12-25T02:28:37.177Z,77.17
2016-12-25T02:29:47.540Z,77.17
2016-12-25T02:30:57.575Z,77.26
2016-12-25T02:32:07.912Z,77.17
2016-12-25T02:33:18.234Z,77.07
2016-12-25T02:34:28.252Z,77.17
2016-12-25T02:35:38.263Z,77.26
2016-12-25T02:36:48.289Z,77.17
2016-12-25T02:37:58.621Z,77.17
2016-12-25T02:39:08.640Z,76.98
2016-12-25T02:40:18.965Z,76.98
2016-12-25T02:41:28.981Z,76.98
2016-12-25T02:42:39.315Z,76.98
2016-12-25T02:43:49.634Z,76.98
2016-12-25T02:44:59.967Z,77.07
2016-12-25T02:46:10.308Z,77.17
2016-12-25T02:47:20.649Z,76.88
2016-12-25T02:48:30.657Z,76.79
2016-12-25T02:49:40.978Z,76.88
2016-12-25T02:50:51.536Z,76.98
2016-12-25T02:52:01.881Z,77.07
2016-12-25T02:53:12.203Z,76.98
2016-12-25T02:54:22.204Z,76.98
2016-12-25T02:55:31.911Z,77.26
2016-12-25T02:56:41.928Z,77.26
2016-12-25T02:57:51.954Z,77.17
2016-12-25T02:59:02.287Z,77.26
2016-12-25T03:00:12.611Z,77.45
2016-12-25T03:32:39.257Z,74.07
2016-12-25T03:33:49.575Z,74.63
2016-12-25T03:34:59.576Z,75.87
2016-12-25T03:36:09.577Z,76.92
2016-12-25T03:37:19.616Z,77.68
2016-12-25T03:38:29.325Z,78.34
2016-12-25T03:39:39.328Z,78.06
2016-12-25T03:40:49.371Z,78.34
2016-12-25T03:41:59.396Z,78.77
2016-12-25T03:43:09.748Z,78.48
2016-12-25T03:44:19.750Z,78.48
2016-12-25T03:45:30.080Z,78.38
2016-12-25T03:46:39.479Z,78.8
2016-12-25T03:47:49.481Z,78.52
2016-12-25T03:48:59.814Z,78.23
2016-12-25T03:50:10.144Z,78.04
2016-12-25T03:51:20.515Z,78.04
2016-12-25T03:52:30.526Z,78.17
2016-12-25T03:53:40.560Z,77.89
2016-12-25T03:54:50.592Z,77.7
2016-12-25T03:56:00.913Z,78.27
2016-12-25T03:57:10.924Z,77.89
2016-12-25T03:58:20.320Z,77.8
2016-12-25T03:59:30.686Z,78.08
2016-12-25T04:00:41.269Z,77.42
2016-12-25T04:01:51.600Z,77.89
2016-12-25T04:03:01.927Z,77.61
2016-12-25T04:04:12.251Z,77.42
2016-12-25T04:05:22.270Z,77.61
2016-12-25T04:06:32.282Z,77.61
2016-12-25T04:07:42.604Z,77.7
2016-12-25T04:08:52.637Z,77.22
2016-12-25T04:10:02.647Z,77.42
2016-12-25T04:11:12.970Z,77.03
2016-12-25T04:12:22.986Z,76.94
2016-12-25T04:13:32.696Z,76.75
2016-12-25T04:14:42.428Z,76.94
2016-12-25T04:15:52.750Z,76.94
2016-12-25T04:17:02.761Z,76.94
2016-12-25T04:18:13.088Z,76.94
2016-12-25T04:19:23.114Z,76.94
2016-12-25T04:20:33.441Z,77.03
2016-12-25T04:21:43.682Z,77.03
2016-12-25T04:22:53.701Z,77.13
2016-12-25T04:24:03.711Z,77.13
2016-12-25T04:25:14.047Z,77.13
2016-12-25T04:26:24.049Z,77.22
2016-12-25T04:27:34.076Z,77.13
2016-12-25T04:28:43.774Z,77.22
2016-12-25T04:29:54.110Z,77.32
2016-12-25T04:31:03.817Z,77.13
2016-12-25T04:32:13.853Z,77.03
2016-12-25T04:33:24.175Z,77.42
2016-12-25T04:34:34.510Z,77.13
2016-12-25T04:35:44.527Z,77.13
2016-12-25T04:36:54.546Z,77.13
2016-12-25T04:38:04.912Z,77.03
2016-12-25T04:39:14.923Z,77.03
2016-12-25T04:40:24.968Z,77.13
2016-12-25T04:41:35.004Z,77.22
2016-12-25T04:42:44.388Z,77.32
2016-12-25T04:43:54.426Z,77.28
2016-12-25T04:45:04.445Z,77.03
2016-12-25T04:46:14.756Z,77.42
2016-12-25T04:47:24.757Z,77.09
2016-12-25T04:48:35.078Z,77
2016-12-25T04:49:45.106Z,76.9
2016-12-25T04:50:55.436Z,77.03
2016-12-25T04:52:05.764Z,77.09
2016-12-25T04:53:15.780Z,77.19
2016-12-25T04:54:25.786Z,77
2016-12-25T04:55:35.484Z,77.03
2016-12-25T04:56:45.495Z,76.9
2016-12-25T04:57:55.202Z,76.9
2016-12-25T04:59:05.218Z,76.81
2016-12-25T05:00:15.235Z,76.81
2016-12-25T05:01:25.551Z,76.71
2016-12-25T05:02:35.869Z,76.81
2016-12-25T05:03:45.891Z,76.61
2016-12-25T05:04:56.223Z,76.9
2016-12-25T05:06:06.545Z,76.81
2016-12-25T05:07:16.557Z,76.9
2016-12-25T05:08:26.883Z,76.9
2016-12-25T05:09:36.904Z,77.19
2016-12-25T05:10:46.911Z,76.71
2016-12-25T05:11:56.920Z,76.9
2016-12-25T05:13:06.935Z,76.71
2016-12-25T05:14:16.952Z,76.61
2016-12-25T05:15:27.267Z,76.71
2016-12-25T05:16:37.271Z,76.71
2016-12-25T05:17:47.003Z,76.61
2016-12-25T05:18:56.720Z,77.09
2016-12-25T05:20:07.055Z,76.9
2016-12-25T05:21:17.366Z,76.71
2016-12-25T05:22:27.714Z,76.9
2016-12-25T05:23:37.415Z,76.81
2016-12-25T05:24:47.737Z,76.71
2016-12-25T05:25:57.758Z,76.9
2016-12-25T05:27:07.765Z,76.81
2016-12-25T05:28:18.082Z,77.09
2016-12-25T05:29:28.430Z,76.9
2016-12-25T05:30:38.445Z,76.71
2016-12-25T05:31:48.448Z,76.61
2016-12-25T05:32:58.785Z,76.61
2016-12-25T05:34:08.801Z,77.09
2016-12-25T05:35:18.505Z,76.9
2016-12-25T05:36:28.210Z,76.71
2016-12-25T05:37:38.515Z,76.81
2016-12-25T05:38:48.829Z,76.9
2016-12-25T05:39:58.865Z,76.71
2016-12-25T05:41:09.186Z,77.19
2016-12-25T05:42:19.217Z,76.71
2016-12-25T05:43:29.224Z,76.71
2016-12-25T05:44:39.252Z,76.81
2016-12-25T05:45:48.964Z,76.9
2016-12-25T05:46:59.284Z,76.9
2016-12-25T05:48:09.621Z,76.81
2016-12-25T05:49:19.943Z,76.71
2016-12-25T05:50:30.268Z,76.61
2016-12-25T05:51:40.578Z,76.61
2016-12-25T05:52:50.603Z,76.71
2016-12-25T05:54:00.621Z,76.61
2016-12-25T05:55:10.622Z,76.61
2016-12-25T05:56:20.649Z,76.61
2016-12-25T05:57:30.980Z,76.81
2016-12-25T05:58:41.561Z,76.81
2016-12-25T05:59:51.877Z,76.71
2016-12-25T06:01:02.202Z,76.61
2016-12-25T06:02:12.509Z,76.9
2016-12-25T06:03:22.844Z,76.81
2016-12-25T06:04:33.177Z,76.9
2016-12-25T06:05:42.924Z,76.42
2016-12-25T06:06:53.296Z,76.81
2016-12-25T06:08:03.336Z,76.71
2016-12-25T06:09:13.043Z,76.9
2016-12-25T06:10:23.069Z,76.52
2016-12-25T06:11:33.075Z,76.71
2016-12-25T06:12:43.404Z,76.71
2016-12-25T06:13:53.410Z,76.81
2016-12-25T06:15:03.108Z,76.67
2016-12-25T06:16:12.813Z,76.61
2016-12-25T06:17:23.135Z,76.61
2016-12-25T06:18:32.831Z,77
2016-12-25T06:19:43.163Z,76.76
2016-12-25T06:20:53.180Z,77.05
2016-12-25T06:22:02.887Z,76.57
2016-12-25T06:23:13.211Z,76.76
2016-12-25T06:24:22.905Z,76.86
2016-12-25T06:25:33.227Z,76.96
2016-12-25T06:26:43.548Z,76.9
2016-12-25T06:27:53.865Z,76.76
2016-12-25T06:29:03.891Z,76.67
2016-12-25T06:30:13.959Z,76.52
2016-12-25T06:31:24.295Z,76.67
2016-12-25T06:32:34.647Z,76.57
2016-12-25T06:33:44.972Z,76.57
2016-12-25T06:34:55.297Z,76.67
2016-12-25T06:36:05.323Z,76.76
2016-12-25T06:37:15.651Z,76.86
2016-12-25T06:38:25.975Z,77.05
2016-12-25T06:39:36.321Z,77.05
2016-12-25T06:40:46.645Z,76.67
2016-12-25T06:41:56.350Z,76.76
2016-12-25T06:43:06.679Z,76.76
2016-12-25T06:44:17.013Z,76.76
2016-12-25T06:45:26.714Z,76.67
2016-12-25T06:46:36.412Z,76.9
2016-12-25T06:47:46.740Z,76.76
2016-12-25T06:48:56.456Z,77
2016-12-25T06:50:05.848Z,76.61
2016-12-25T06:51:15.859Z,76.61
2016-12-25T06:52:26.191Z,76.81
2016-12-25T06:53:36.511Z,76.52
2016-12-25T06:54:46.830Z,76.71
2016-12-25T06:55:57.145Z,76.81
2016-12-25T06:57:07.157Z,76.81
2016-12-25T06:58:16.584Z,76.42
2016-12-25T06:59:26.600Z,76.71
2016-12-25T07:00:36.928Z,76.81
2016-12-25T07:01:46.626Z,76.9
2016-12-25T07:02:56.956Z,76.81
2016-12-25T07:04:06.980Z,76.9
2016-12-25T07:05:17.030Z,77.09
2016-12-25T07:06:27.037Z,76.71
2016-12-25T07:07:37.354Z,76.71
2016-12-25T07:08:47.350Z,76.61
2016-12-25T07:09:57.361Z,76.71
2016-12-25T07:11:07.077Z,76.81
2016-12-25T07:12:16.775Z,76.71
2016-12-25T07:13:26.798Z,76.81
2016-12-25T07:14:37.151Z,76.71
2016-12-25T07:15:47.470Z,76.71
2016-12-25T07:16:57.797Z,76.81
2016-12-25T07:18:08.131Z,76.71
2016-12-25T07:19:18.469Z,76.71
2016-12-25T07:20:28.783Z,76.52
2016-12-25T07:21:38.489Z,76.81
2016-12-25T07:22:48.496Z,76.52
2016-12-25T07:23:58.502Z,76.81
2016-12-25T07:25:08.851Z,76.9
2016-12-25T07:26:18.875Z,76.9
2016-12-25T07:27:29.192Z,77
2016-12-25T07:28:39.583Z,76.81
2016-12-25T07:29:49.903Z,76.9
2016-12-25T07:31:00.227Z,76.61
2016-12-25T07:32:10.245Z,76.71
2016-12-25T07:33:19.639Z,76.81
2016-12-25T07:34:29.971Z,76.71
2016-12-25T07:35:40.290Z,76.71
2016-12-25T07:36:50.313Z,76.52
2016-12-25T07:38:00.318Z,76.61
2016-12-25T07:39:10.353Z,76.42
2016-12-25T07:40:20.050Z,76.42
2016-12-25T07:41:30.377Z,76.33
2016-12-25T07:42:40.390Z,76.52
2016-12-25T07:43:50.105Z,76.42
2016-12-25T07:45:00.442Z,76.42
2016-12-25T07:46:10.149Z,76.71
2016-12-25T07:47:20.471Z,76.42
2016-12-25T07:48:29.874Z,76.9
2016-12-25T07:49:39.880Z,76.9
2016-12-25T07:50:50.215Z,76.65
2016-12-25T07:52:00.578Z,76.65
2016-12-25T07:53:10.615Z,76.56
2016-12-25T07:54:20.650Z,76.37
2016-12-25T07:55:30.662Z,76.46
2016-12-25T07:56:40.364Z,76.56
2016-12-25T07:57:50.389Z,76.46
2016-12-25T07:59:00.427Z,76.65
2016-12-25T08:00:10.449Z,76.46
2016-12-25T08:01:20.466Z,76.65
2016-12-25T08:02:30.794Z,76.46
2016-12-25T08:03:40.499Z,76.56
2016-12-25T08:04:50.515Z,76.56
2016-12-25T08:06:00.838Z,76.65
2016-12-25T08:07:11.189Z,76.65
2016-12-25T08:08:21.520Z,76.56
2016-12-25T08:09:31.234Z,76.37
2016-12-25T08:10:41.247Z,76.27
2016-12-25T08:11:51.571Z,76.65
2016-12-25T08:13:01.276Z,76.46
2016-12-25T08:14:10.980Z,76.65
2016-12-25T08:15:20.990Z,76.46
2016-12-25T08:16:31.327Z,76.65
2016-12-25T08:17:41.659Z,76.65
2016-12-25T08:18:52.005Z,76.56
2016-12-25T08:20:02.349Z,76.65
2016-12-25T08:21:12.698Z,76.46
2016-12-25T08:22:23.021Z,76.46
2016-12-25T08:23:33.034Z,76.65
2016-12-25T08:24:43.039Z,76.56
2016-12-25T08:25:53.064Z,76.46
2016-12-25T08:27:03.383Z,76.84
2016-12-25T08:28:13.082Z,76.94
2016-12-25T08:29:23.409Z,76.75
2016-12-25T08:30:33.741Z,76.75
2016-12-25T08:31:44.063Z,76.75
2016-12-25T08:32:54.394Z,76.75
2016-12-25T08:34:04.727Z,76.84
2016-12-25T08:35:14.747Z,76.84
2016-12-25T08:36:25.084Z,76.75
2016-12-25T08:37:35.435Z,76.84
2016-12-25T08:38:44.852Z,76.84
2016-12-25T08:39:54.869Z,76.94
2016-12-25T08:41:04.576Z,76.75
2016-12-25T08:42:14.606Z,76.75
2016-12-25T08:43:24.319Z,76.75
2016-12-25T08:44:34.650Z,76.27
2016-12-25T08:45:44.663Z,76.84
2016-12-25T08:46:54.664Z,76.84
2016-12-25T08:48:04.064Z,76.75
2016-12-25T08:49:14.389Z,76.46
2016-12-25T08:50:24.394Z,76.56
2016-12-25T08:51:34.726Z,76.56
2016-12-25T08:52:45.052Z,76.56
2016-12-25T08:53:54.758Z,76.75
2016-12-25T08:55:04.814Z,76.84
2016-12-25T08:56:15.153Z,76.75
2016-12-25T08:57:24.879Z,76.84
2016-12-25T08:58:34.901Z,76.79
2016-12-25T08:59:44.913Z,76.37
2016-12-25T09:00:54.938Z,76.31
2016-12-25T09:02:04.960Z,76.08
2016-12-25T09:03:15.284Z,76.46
2016-12-25T09:04:25.618Z,76.27
2016-12-25T09:05:35.641Z,76.12
2016-12-25T09:06:45.966Z,76.08
2016-12-25T09:07:55.991Z,76.69
2016-12-25T09:09:06.325Z,76.12
2016-12-25T09:10:16.344Z,76.08
2016-12-25T09:11:26.670Z,76.08
2016-12-25T09:12:36.996Z,76.08
2016-12-25T09:13:46.719Z,76.46
2016-12-25T09:14:57.049Z,76.5
2016-12-25T09:16:07.390Z,76.5
2016-12-25T09:17:17.397Z,76.56
2016-12-25T09:18:27.099Z,76.56
2016-12-25T09:19:37.661Z,76.08
2016-12-25T09:20:48.016Z,76.37
2016-12-25T09:21:58.371Z,76.31
2016-12-25T09:23:08.121Z,76.27
2016-12-25T09:24:18.134Z,76.69
2016-12-25T09:25:28.149Z,76.56
2016-12-25T09:26:38.486Z,76.31
2016-12-25T09:27:48.498Z,76.31
2016-12-25T09:28:58.820Z,76.27
2016-12-25T09:30:09.147Z,76.27
2016-12-25T09:31:18.555Z,76.37
2016-12-25T09:32:28.876Z,76.08
2016-12-25T09:33:38.916Z,76.12
2016-12-25T09:34:49.232Z,76.4
2016-12-25T09:35:59.247Z,76.12
2016-12-25T09:37:09.566Z,76.21
2016-12-25T09:38:19.271Z,76.12
2016-12-25T09:39:29.592Z,76.21
2016-12-25T09:40:39.917Z,76.21
2016-12-25T09:41:49.630Z,76.4
2016-12-25T09:42:59.947Z,76.4
2016-12-25T09:44:10.303Z,76.21
2016-12-25T09:45:20.319Z,76.21
2016-12-25T09:46:30.641Z,76.21
2016-12-25T09:47:40.654Z,76.4
2016-12-25T09:48:50.989Z,76.21
2016-12-25T09:50:01.012Z,76.5
2016-12-25T09:51:10.727Z,76.21
2016-12-25T09:52:21.055Z,76.31
2016-12-25T09:53:31.071Z,76.31
2016-12-25T09:54:41.093Z,76.31
2016-12-25T09:55:51.111Z,76.59
2016-12-25T09:57:01.448Z,76.31
2016-12-25T09:58:11.780Z,76.59
2016-12-25T09:59:21.797Z,76.31
2016-12-25T10:00:32.122Z,76.31
2016-12-25T10:01:42.446Z,76.69
2016-12-25T10:02:52.156Z,76.21
2016-12-25T10:04:02.162Z,76.21
2016-12-25T10:05:12.218Z,76.79
2016-12-25T10:06:21.922Z,76.88
2016-12-25T10:07:31.623Z,76.79
2016-12-25T10:08:41.658Z,76.79
2016-12-25T10:09:51.980Z,76.69
2016-12-25T10:11:02.312Z,76.69
2016-12-25T10:12:12.380Z,76.59
2016-12-25T10:13:22.718Z,76.5
2016-12-25T10:14:32.726Z,76.03
2016-12-25T10:15:42.439Z,76.4
2016-12-25T10:16:52.766Z,76.31
2016-12-25T10:18:02.777Z,76.5
2016-12-25T10:19:12.833Z,76.31
2016-12-25T10:20:22.861Z,75.93
2016-12-25T10:21:33.199Z,75.93
2016-12-25T10:22:43.544Z,75.93
2016-12-25T10:23:53.884Z,75.55
2016-12-25T10:25:04.217Z,75.84
2016-12-25T10:26:13.919Z,75.74
2016-12-25T10:27:23.625Z,75.64
2016-12-25T10:28:33.323Z,76.06
2016-12-25T10:29:43.663Z,75.87
2016-12-25T10:30:53.727Z,75.93
2016-12-25T10:32:03.741Z,76.25
2016-12-25T10:33:14.090Z,75.78
2016-12-25T10:34:24.421Z,75.59
2016-12-25T10:35:34.778Z,75.59
2016-12-25T10:36:44.815Z,75.68
2016-12-25T10:37:55.141Z,75.59
2016-12-25T10:39:05.168Z,76.06
2016-12-25T10:40:14.881Z,76.06
2016-12-25T10:41:25.228Z,75.87
2016-12-25T10:42:35.569Z,75.87
2016-12-25T10:43:45.575Z,75.78
2016-12-25T10:44:55.597Z,75.68
2016-12-25T10:46:05.941Z,75.78
2016-12-25T10:47:16.265Z,75.87
2016-12-25T10:48:26.284Z,75.68
2016-12-25T10:49:36.617Z,75.59
2016-12-25T10:50:46.632Z,75.78
2016-12-25T10:51:56.688Z,75.78
2016-12-25T10:53:06.702Z,75.68
2016-12-25T10:54:17.037Z,75.64
2016-12-25T10:55:27.407Z,75.45
2016-12-25T10:56:37.744Z,75.78
2016-12-25T10:57:48.052Z,75.78
2016-12-25T10:58:58.077Z,75.87
2016-12-25T11:00:07.765Z,76.25
2016-12-25T11:01:17.801Z,75.78
2016-12-25T11:02:28.132Z,75.96
2016-12-25T11:03:38.156Z,76.06
2016-12-25T11:04:48.487Z,76.16
2016-12-25T11:05:58.208Z,75.87
2016-12-25T11:07:08.555Z,76.06
2016-12-25T11:08:18.252Z,76.16
2016-12-25T11:09:28.277Z,75.87
2016-12-25T11:10:38.609Z,76.06
2016-12-25T11:11:48.335Z,76.06
2016-12-25T11:12:58.667Z,75.4
2016-12-25T11:14:08.686Z,75.59
2016-12-25T11:15:18.717Z,75.59
2016-12-25T11:16:27.809Z,75.3
2016-12-25T11:17:38.161Z,75.24
2016-12-25T11:18:48.499Z,75.43
2016-12-25T11:19:58.830Z,75.53
2016-12-25T11:21:08.833Z,75.24
2016-12-25T11:22:19.187Z,75.62
2016-12-25T11:23:28.898Z,75.81
2016-12-25T11:24:39.236Z,75.43
2016-12-25T11:25:49.554Z,75.72
2016-12-25T11:26:59.606Z,76.01
2016-12-25T11:28:09.641Z,76.01
2016-12-25T11:29:19.989Z,76.01
2016-12-25T11:30:30.043Z,76.1
2016-12-25T11:31:40.061Z,75.91
2016-12-25T11:32:50.090Z,75.91
2016-12-25T11:34:00.120Z,76.1
2016-12-25T11:35:09.830Z,76.1
2016-12-25T11:36:19.874Z,76.01
2016-12-25T11:37:29.911Z,76.01
2016-12-25T11:38:39.954Z,76.1
2016-12-25T11:39:50.315Z,76.1
2016-12-25T11:41:00.331Z,76.1
2016-12-25T11:42:10.673Z,76.1
2016-12-25T11:43:20.689Z,75.81
2016-12-25T11:44:31.017Z,75.81
2016-12-25T11:45:40.419Z,76.1
2016-12-25T11:46:50.444Z,75.81
2016-12-25T11:48:00.778Z,76.01
2016-12-25T11:49:10.793Z,76.01
2016-12-25T11:50:20.811Z,75.62
2016-12-25T11:51:31.166Z,76.01
2016-12-25T11:52:41.513Z,76.01
2016-12-25T11:53:51.529Z,76.01
2016-12-25T11:55:01.893Z,76.1
2016-12-25T11:56:12.220Z,75.91
2016-12-25T11:57:22.280Z,75.91
2016-12-25T11:58:32.616Z,76.2
2016-12-25T11:59:42.959Z,75.91
2016-12-25T12:00:53.319Z,75.81
2016-12-25T12:02:03.664Z,75.53
2016-12-25T12:03:13.683Z,75.53
2016-12-25T12:04:24.020Z,75.43
2016-12-25T12:05:34.355Z,75.34
2016-12-25T12:06:44.689Z,75.66
2016-12-25T12:07:54.701Z,75.57
2016-12-25T12:09:05.038Z,75.47
2016-12-25T12:10:15.090Z,75.66
2016-12-25T12:11:25.101Z,75.66
2016-12-25T12:12:35.139Z,75.09
2016-12-25T12:13:44.980Z,75.47
2016-12-25T12:14:56.597Z,75.47
2016-12-25T12:16:08.698Z,75.57
2016-12-25T12:17:21.661Z,75.47
2016-12-25T12:18:34.316Z,75.37
2016-12-25T12:19:47.577Z,75.66
2016-12-25T12:20:59.681Z,75.37
2016-12-25T12:22:13.334Z,75.6
2016-12-25T12:23:25.802Z,75.7
2016-12-25T12:24:39.301Z,75.6
2016-12-25T12:25:52.662Z,75.89
2016-12-25T12:27:04.430Z,75.13
2016-12-25T12:28:18.520Z,75.13
2016-12-25T12:29:31.269Z,75.22
2016-12-25T12:30:43.276Z,75.32
2016-12-25T12:31:55.256Z,75.42
2016-12-25T12:33:08.389Z,75.51
2016-12-25T12:34:21.150Z,75.7
2016-12-25T12:35:34.692Z,75.51
2016-12-25T12:36:46.884Z,75.98
2016-12-25T12:37:59.432Z,75.6
2016-12-25T12:39:11.117Z,75.89
2016-12-25T12:40:24.973Z,76.18
2016-12-25T12:41:37.135Z,76.18
2016-12-25T12:42:48.347Z,75.89
2016-12-25T12:43:59.851Z,75.6
2016-12-25T12:45:11.963Z,75.79
2016-12-25T12:46:22.036Z,75.51
2016-12-25T12:47:31.832Z,76.08
2016-12-25T12:48:41.840Z,76.27
2016-12-25T12:49:51.552Z,75.89
2016-12-25T12:51:01.288Z,76.18
2016-12-25T12:52:11.658Z,75.98
2016-12-25T12:53:21.767Z,75.98
2016-12-25T12:54:32.203Z,75.79
2016-12-25T12:55:42.647Z,75.79
2016-12-25T12:56:52.804Z,75.79
2016-12-25T12:58:03.181Z,76.08
2016-12-25T12:59:13.552Z,75.66
2016-12-25T13:00:23.625Z,75.66
2016-12-25T13:01:34.043Z,76.04
2016-12-25T13:02:44.506Z,75.76
2016-12-25T13:03:54.843Z,75.85
2016-12-25T13:05:04.876Z,75.95
2016-12-25T13:06:15.246Z,76.42
2016-12-25T13:07:25.653Z,75.95
2016-12-25T13:08:35.986Z,75.95
2016-12-25T13:09:46.329Z,76.04
2016-12-25T13:10:56.654Z,75.76
2016-12-25T13:12:06.667Z,75.66
2016-12-25T13:13:17.070Z,75.85
2016-12-25T13:14:27.164Z,75.85
2016-12-25T13:15:37.520Z,75.85
2016-12-25T13:16:47.351Z,75.95
2016-12-25T13:17:57.803Z,75.95
2016-12-25T13:19:07.844Z,75.95
2016-12-25T13:20:18.199Z,76.14
2016-12-25T13:21:28.544Z,76.14
2016-12-25T13:22:38.580Z,76.14
2016-12-25T13:23:48.919Z,76.04
2016-12-25T13:24:58.668Z,75.95
2016-12-25T13:26:08.716Z,75.76
2016-12-25T13:27:18.432Z,75.85
2016-12-25T13:28:28.155Z,75.85
2016-12-25T13:29:38.523Z,75.95
2016-12-25T13:30:48.610Z,75.76
2016-12-25T13:31:58.995Z,75.85
2016-12-25T13:33:09.380Z,75.76
2016-12-25T13:34:19.746Z,75.76
2016-12-25T13:35:29.463Z,75.72
2016-12-25T13:36:39.815Z,76.1
2016-12-25T13:37:50.183Z,75.72
2016-12-25T13:39:00.540Z,76.1
2016-12-25T13:40:10.565Z,75.91
2016-12-25T13:41:20.921Z,75.72
2016-12-25T13:42:30.949Z,75.81
2016-12-25T13:43:40.982Z,75.91
2016-12-25T13:44:51.318Z,75.72
2016-12-25T13:46:01.044Z,75.62
2016-12-25T13:47:11.408Z,75.81
2016-12-25T13:48:21.128Z,75.81
2016-12-25T13:49:31.480Z,75.81
2016-12-25T13:50:41.867Z,75.72
2016-12-25T13:51:52.198Z,75.91
2016-12-25T13:53:02.241Z,76.1
2016-12-25T13:54:11.956Z,76.01
2016-12-25T13:55:21.991Z,75.81
2016-12-25T13:56:32.363Z,76.39
2016-12-25T13:57:42.685Z,76.1
2016-12-25T13:58:53.029Z,76.29
2016-12-25T14:00:02.776Z,76.48
2016-12-25T14:01:13.125Z,76.39
2016-12-25T14:02:23.462Z,76.2
2016-12-25T14:03:33.840Z,76.29
2016-12-25T14:04:43.852Z,76.2
2016-12-25T14:05:54.246Z,76.2
2016-12-25T14:07:04.591Z,76.77
2016-12-25T14:08:14.936Z,76.48
2016-12-25T14:09:25.263Z,76.2
2016-12-25T14:10:35.606Z,76.39
2016-12-25T14:11:45.641Z,76.39
2016-12-25T14:12:55.658Z,76.67
2016-12-25T14:14:06.024Z,76.2
2016-12-25T14:15:16.043Z,76.29
2016-12-25T14:16:26.093Z,77.06
2016-12-25T14:17:36.469Z,77.06
2016-12-25T14:18:46.497Z,76.54
2016-12-25T14:19:55.895Z,76.64
2016-12-25T14:21:06.242Z,76.64
2016-12-25T14:22:15.971Z,76.64
2016-12-25T14:23:26.042Z,76.92
2016-12-25T14:24:36.419Z,77.01
2016-12-25T14:25:46.493Z,76.73
2016-12-25T14:26:56.225Z,76.92
2016-12-25T14:28:05.966Z,76.82
2016-12-25T14:29:16.323Z,76.92
2016-12-25T14:30:26.705Z,77.01
2016-12-25T14:31:36.478Z,76.64
2016-12-25T14:32:46.509Z,76.92
2016-12-25T14:33:56.526Z,76.73
2016-12-25T14:35:06.896Z,76.73
2016-12-25T14:36:16.942Z,76.73
2016-12-25T14:37:27.297Z,76.92
2016-12-25T14:38:37.664Z,77.01
2016-12-25T14:39:47.692Z,77.01
2016-12-25T14:40:58.032Z,77.2
2016-12-25T14:42:08.062Z,77.2
2016-12-25T14:43:18.428Z,77.2
2016-12-25T14:44:28.166Z,77.2
2016-12-25T14:45:38.201Z,77.2
2016-12-25T14:46:48.329Z,76.92
2016-12-25T14:47:58.619Z,77.2
2016-12-25T14:49:10.164Z,77.11
2016-12-25T14:50:19.880Z,77.11
2016-12-25T14:51:29.609Z,76.82
2016-12-25T14:52:39.955Z,76.82
2016-12-25T14:53:49.361Z,77.3
2016-12-25T14:54:59.716Z,77.2
2016-12-25T14:56:10.122Z,77.2
2016-12-25T14:57:20.487Z,76.82
2016-12-25T14:58:30.572Z,77.2
2016-12-25T14:59:40.597Z,77.11
2016-12-25T15:00:50.327Z,77.01
2016-12-25T15:02:00.396Z,77.2
2016-12-25T15:03:10.747Z,77.11
2016-12-25T15:04:20.785Z,77.11
2016-12-25T15:05:30.853Z,77.11
2016-12-25T15:06:41.214Z,77.4
2016-12-25T15:07:51.586Z,77.11
2016-12-25T15:09:02.178Z,77.11
2016-12-25T15:10:12.568Z,76.82
2016-12-25T15:11:22.926Z,77.4
2016-12-25T15:12:32.945Z,77.2
2016-12-25T15:13:42.648Z,77.11
2016-12-25T15:14:52.987Z,77.11
2016-12-25T15:16:03.028Z,76.82
2016-12-25T15:17:13.090Z,77.4
2016-12-25T15:18:23.117Z,77.4
2016-12-25T15:19:33.500Z,77.11
2016-12-25T15:20:43.540Z,76.92
2016-12-25T15:21:53.592Z,77.11
2016-12-25T15:23:03.632Z,77.4
2016-12-25T15:24:13.364Z,77.2
2016-12-25T15:25:23.705Z,77.2
2016-12-25T15:26:33.747Z,77.2
2016-12-25T15:27:44.097Z,77.2
2016-12-25T15:28:54.442Z,77.11
2016-12-25T15:30:03.854Z,77.11
2016-12-25T15:31:14.229Z,76.82
2016-12-25T15:32:24.251Z,77.3
2016-12-25T15:33:34.279Z,76.82
2016-12-25T15:34:44.308Z,76.92
2016-12-25T15:35:54.667Z,76.82
2016-12-25T15:37:04.713Z,76.92
2016-12-25T15:38:15.059Z,77.01
2016-12-25T15:39:25.416Z,76.82